Aérodrome :
LOGIN :

S'inscrire | Disclaimer

   EN    FR    IT 

 










Légende :    VFR   VFR Marginal   IFR   IFR Intensif   IFR Très Intensif
Visi : 
Plafond : 
>= 8 km
>= 3000ft
5 à 8 km
1000 à 3000 ft
1500m à 5 km
500 à 1000 ft
800 à 1500m
200 à 500 ft
< 800m
< 200 ft
Symboles :   Orages  Brouillard  Fortes neiges  Fortes précipitations  Vent > 20 kt
SIGMETs :   Divers  Orages  Givrage  Turbulence  Onde Orograph.  Cendres Volcan.






- Altitude de l'aérodrome : 160 ft
- Code IATA : FMO


EDDG - Münster Osnabrück Int.

DERNIER METAR :
  • 190750Z AUTO 03009KT 350V080 9999 SCT015 16/12 Q1017 NOSIG

METARs EXPIRÉS :
  • 190720Z AUTO 02008KT 360V090 9999 BKN012 16/12 Q1017 BECMG SCT015
  • 190650Z AUTO 02007KT 360V060 9999 BKN012 14/12 Q1017 BECMG SCT014
  • 190620Z AUTO 01006KT 9999 SCT008 BKN012 14/13 Q1016 BECMG SCT011
  • 190550Z AUTO 01007KT 340V050 9999 BKN009 14/13 Q1016 BECMG BKN011
  • 190520Z AUTO 36005KT 330V060 9999 BKN009 14/13 Q1015 BECMG SCT010
  • 190450Z AUTO 01006KT 9999 BKN009 14/13 Q1015 BECMG SCT015
  • 190420Z AUTO 34005KT 8000 BKN009 14/14 Q1015 TEMPO BKN011
  • 190350Z AUTO 34003KT 300V010 5000 BR FEW002 BKN011 BKN030 14/14 Q1015 TEMPO 4000 BR
  • 190320Z AUTO 36003KT 330V030 4200 BR BKN002 BKN010 14/14 Q1014 TEMPO SCT003

TAF TAF EDDG
Valide du 19 à 06h jusqu'au 20 à 06h UTC


190500Z 1906/2006 35007KT 9999 BKN009
BECMG 1906/1909 SCT015
BECMG 2002/2005 05005KT
PROB30
TEMPO 2003/2005 4500 BR



MET'MAP, la Météo Aéronautique d'un coup d'oeil ! - Copyright ORBIFLY Décembre 2007 - Disclaimer

ORBIFLY MET'MAP TEAM :

Programmation & Développement : Alexandra Zaïnal
Sur une idée originale de : Baudouin d'Aumeries
Soutien technique & logistique : Manuel Goepfert
Assistance : Marc-Olivier Méhu




SOURCES & CREDITS :

   NOAA